Time;durP1;ratioP1;P1;durP2;ratioP2;P2;SDS_P1;SDS_P2;PMS_P1;PMS_P2;Temp;Humidity;BMP_temperature;BMP_pressure;BME280_temperature;BME280_humidity;BME280_pressure;Samples;Min_cycle;Max_cycle;Signal;HPM_P1;HPM_P2
2023/03/02 00:01:19;;;;;;;;;44.25;39.00;;;;;4.77;45.98;101382.47;5056902;28;47479;-54
2023/03/02 00:03:45;;;;;;;;;56.50;44.50;;;;;4.57;45.40;101352.75;5022057;28;45707;-58
2023/03/02 00:06:10;;;;;;;;;58.50;46.00;;;;;4.86;45.22;101394.28;5038973;28;45463;-57
2023/03/02 00:08:36;;;;;;;;;57.25;41.00;;;;;4.70;45.46;101367.81;5057271;28;45156;-54
2023/03/02 00:11:01;;;;;;;;;51.25;43.00;;;;;4.86;45.04;101392.41;5055575;28;45255;-55
2023/03/02 00:13:30;;;;;;;;;58.25;46.50;;;;;4.79;45.89;101385.03;5054926;28;45367;-56
2023/03/02 00:15:55;;;;;;;;;61.75;45.25;;;;;4.82;45.40;101403.75;5049405;28;45795;-55
2023/03/02 00:18:21;;;;;;;;;58.25;44.50;;;;;4.80;46.18;101400.34;5037124;28;45267;-54
2023/03/02 00:20:47;;;;;;;;;56.75;43.25;;;;;4.79;45.27;101399.47;5036263;28;45730;-58
2023/03/02 00:23:46;;;;;;;;;54.00;43.00;;;;;4.76;45.84;101399.81;5036567;28;45453;-54
2023/03/02 00:26:11;;;;;;;;;51.50;43.50;;;;;4.67;45.89;101381.69;5036551;28;45259;-54
2023/03/02 00:28:37;;;;;;;;;55.75;40.50;;;;;4.17;46.03;101311.44;5037083;28;45239;-56
2023/03/02 00:31:03;;;;;;;;;56.00;40.75;;;;;4.44;46.14;101355.00;5034609;28;45889;-55
2023/03/02 00:33:28;;;;;;;;;50.80;39.80;;;;;4.65;46.43;101405.47;5036482;28;45359;-54
2023/03/02 00:35:54;;;;;;;;;47.00;39.50;;;;;4.60;46.44;101387.75;5036617;28;45408;-54
2023/03/02 00:38:19;;;;;;;;;60.00;45.00;;;;;4.67;46.71;101390.72;5035410;28;45328;-55
2023/03/02 00:40:48;;;;;;;;;53.25;42.25;;;;;4.71;46.14;101408.41;5036316;28;46382;-53
2023/03/02 00:43:13;;;;;;;;;50.00;39.75;;;;;4.71;45.66;101396.69;5035912;28;45449;-53
2023/03/02 00:45:39;;;;;;;;;49.50;42.50;;;;;4.73;45.57;101400.09;5036564;28;45303;-52
2023/03/02 00:48:05;;;;;;;;;60.25;42.75;;;;;4.68;45.81;101394.28;5036211;28;45342;-53
2023/03/02 00:50:30;;;;;;;;;44.50;42.25;;;;;4.73;45.59;101398.25;5034549;28;46869;-56
2023/03/02 00:52:56;;;;;;;;;48.25;42.75;;;;;4.51;46.46;101368.81;5036126;28;45249;-56
2023/03/02 00:55:21;;;;;;;;;49.00;42.00;;;;;4.65;45.93;101400.91;5033937;28;45347;-56
2023/03/02 00:57:53;;;;;;;;;61.25;44.00;;;;;4.60;46.04;101395.91;5036260;28;45375;-55
2023/03/02 01:00:20;;;;;;;;;47.75;40.00;;;;;4.64;46.61;101412.78;5020852;28;45792;-55
2023/03/02 01:02:46;;;;;;;;;60.00;45.50;;;;;4.61;46.91;101410.38;5000338;28;45867;-55
2023/03/02 01:05:12;;;;;;;;;45.75;41.75;;;;;4.65;46.29;101409.06;5029856;28;45397;-56
2023/03/02 01:07:37;;;;;;;;;50.25;42.00;;;;;4.63;46.29;101405.63;5016022;28;45351;-56
2023/03/02 01:10:03;;;;;;;;;47.50;40.50;;;;;4.59;46.37;101399.66;5014234;28;46103;-55
2023/03/02 01:12:28;;;;;;;;;46.50;40.25;;;;;4.47;47.21;101398.19;4997718;28;46326;-55
2023/03/02 01:14:54;;;;;;;;;46.75;39.75;;;;;4.19;47.15;101355.63;5014677;28;45476;-52
2023/03/02 01:17:21;;;;;;;;;53.25;42.75;;;;;4.48;46.78;101406.19;5043659;28;45447;-56
2023/03/02 01:19:47;;;;;;;;;46.00;41.00;;;;;4.28;47.02;101372.03;5055402;28;47070;-56
2023/03/02 01:22:12;;;;;;;;;57.25;44.50;;;;;4.45;47.06;101403.78;5037353;28;45370;-54
2023/03/02 01:24:38;;;;;;;;;55.00;41.50;;;;;4.45;46.73;101400.22;5054127;28;45428;-56
2023/03/02 01:27:03;;;;;;;;;46.75;36.75;;;;;4.44;47.07;101393.06;5055614;28;45337;-56
2023/03/02 01:29:29;;;;;;;;;44.25;40.25;;;;;4.40;46.70;101391.66;5053595;28;47540;-56
2023/03/02 01:31:54;;;;;;;;;45.75;41.25;;;;;4.43;47.21;101399.50;5055655;28;45386;-56
2023/03/02 01:34:20;;;;;;;;;52.00;43.25;;;;;4.15;47.09;101358.78;5055602;28;45329;-55
2023/03/02 01:36:45;;;;;;;;;54.50;41.75;;;;;4.35;47.21;101400.28;5055465;28;45586;-55
2023/03/02 01:39:15;;;;;;;;;52.25;47.00;;;;;4.33;47.39;101400.44;5054113;28;45944;-56
2023/03/02 01:41:43;;;;;;;;;57.75;46.50;;;;;4.12;46.95;101346.41;5055197;28;45395;-53
2023/03/02 01:44:38;;;;;;;;;54.75;44.25;;;;;4.38;46.61;101391.81;5037403;28;45374;-52
2023/03/02 01:47:12;;;;;;;;;55.50;46.50;;;;;4.17;46.96;101354.09;5054055;28;45309;-53
2023/03/02 01:49:38;;;;;;;;;52.00;42.50;;;;;4.01;47.58;101336.59;5037612;28;46541;-52
2023/03/02 01:52:04;;;;;;;;;40.50;36.50;;;;;4.26;47.30;101377.59;5036893;28;45265;-56
2023/03/02 01:54:29;;;;;;;;;55.50;43.25;;;;;4.16;47.13;101355.94;5055065;28;45270;-55
2023/03/02 01:56:57;;;;;;;;;56.25;44.00;;;;;4.24;47.74;101366.03;5055582;28;45510;-54
2023/03/02 01:59:23;;;;;;;;;46.50;40.25;;;;;4.23;47.79;101360.75;5054887;28;46260;-56
2023/03/02 02:01:51;;;;;;;;;56.33;45.33;;;;;4.12;47.87;101354.56;5055149;28;45277;-56
2023/03/02 02:04:17;;;;;;;;;48.75;42.50;;;;;4.18;47.96;101372.94;5053486;28;45430;-54
2023/03/02 02:06:53;;;;;;;;;45.25;39.50;;;;;4.07;48.26;101371.28;5054770;28;45563;-53
2023/03/02 02:09:19;;;;;;;;;49.00;43.00;;;;;4.12;48.29;101375.41;5052906;28;48503;-53
2023/03/02 02:11:45;;;;;;;;;46.00;42.00;;;;;4.11;47.95;101373.72;5053584;28;45310;-56
2023/03/02 02:14:10;;;;;;;;;56.00;44.75;;;;;4.11;47.49;101371.84;5053857;28;45310;-55
2023/03/02 02:16:36;;;;;;;;;56.00;45.50;;;;;3.55;47.96;101255.16;5050389;28;45433;-55
2023/03/02 02:19:02;;;;;;;;;63.00;45.67;;;;;4.17;47.82;101373.94;5033085;28;46629;-55
2023/03/02 02:21:28;;;;;;;;;47.50;40.25;;;;;4.15;47.44;101375.09;5033078;28;45405;-52
2023/03/02 02:24:05;;;;;;;;;54.50;44.75;;;;;4.14;47.62;101376.09;5016512;28;45718;-54
2023/03/02 02:26:33;;;;;;;;;54.50;43.50;;;;;4.09;47.95;101371.16;5033345;28;45342;-55
2023/03/02 02:29:12;;;;;;;;;52.75;45.50;;;;;4.12;47.49;101367.28;5033943;28;46176;-57
2023/03/02 02:31:39;;;;;;;;;47.00;40.00;;;;;4.13;47.95;101369.84;5032750;28;45287;-55
2023/03/02 02:34:21;;;;;;;;;55.00;43.67;;;;;4.02;47.49;101340.16;5033121;28;45411;-53
2023/03/02 02:36:47;;;;;;;;;56.00;43.25;;;;;4.13;47.74;101356.25;5017971;28;45300;-56
2023/03/02 02:39:29;;;;;;;;;55.75;47.50;;;;;3.80;48.12;101293.44;5016172;28;46869;-55
2023/03/02 02:41:57;;;;;;;;;50.25;42.50;;;;;3.88;47.63;101326.13;5016698;28;45224;-53
2023/03/02 02:44:23;;;;;;;;;42.75;40.50;;;;;4.09;48.05;101356.69;5016341;28;45303;-56
2023/03/02 02:46:48;;;;;;;;;45.75;41.25;;;;;4.05;47.88;101358.88;5034623;28;45208;-54
2023/03/02 02:49:28;;;;;;;;;55.50;42.75;;;;;3.96;48.42;101346.22;5016051;28;48583;-55
2023/03/02 02:51:53;;;;;;;;;54.50;43.50;;;;;4.02;48.01;101353.75;5017235;28;46375;-55
2023/03/02 02:54:19;;;;;;;;;50.25;42.50;;;;;3.85;47.87;101320.13;5032719;28;45282;-56
2023/03/02 02:56:44;;;;;;;;;57.50;42.25;;;;;3.78;48.29;101315.31;5033330;28;45225;-53
2023/03/02 02:59:17;;;;;;;;;52.50;42.50;;;;;4.01;47.45;101347.44;5016312;28;45365;-55
2023/03/02 03:01:44;;;;;;;;;51.25;42.75;;;;;4.00;47.97;101345.75;5034511;28;45242;-55
2023/03/02 03:04:09;;;;;;;;;39.75;37.25;;;;;3.96;48.69;101341.66;4988423;28;45441;-60
2023/03/02 03:06:40;;;;;;;;;45.50;39.00;;;;;3.94;48.15;101335.50;4996467;28;45407;-55
2023/03/02 03:09:07;;;;;;;;;43.75;38.00;;;;;3.85;48.05;101341.84;5029350;28;47167;-56
2023/03/02 03:11:38;;;;;;;;;52.00;44.00;;;;;3.86;48.28;101344.44;5012884;28;45557;-56
2023/03/02 03:14:15;;;;;;;;;53.00;41.50;;;;;3.83;48.60;101347.44;5013458;28;45349;-56
2023/03/02 03:16:43;;;;;;;;;60.25;45.75;;;;;3.85;48.75;101342.69;5036979;28;45458;-56
2023/03/02 03:19:29;;;;;;;;;49.67;44.67;;;;;3.85;48.82;101348.13;5054192;28;45339;-55
2023/03/02 03:21:56;;;;;;;;;54.00;44.33;;;;;3.83;49.02;101344.72;5057344;28;45338;-56
2023/03/02 03:24:21;;;;;;;;;55.25;45.25;;;;;3.85;48.59;101350.00;5056190;28;45356;-56
2023/03/02 03:26:47;;;;;;;;;54.25;41.75;;;;;3.81;48.87;101344.03;5057848;28;45526;-56
2023/03/02 03:29:13;;;;;;;;;48.00;38.50;;;;;3.74;48.41;101343.75;5039583;28;46429;-55
2023/03/02 03:31:38;;;;;;;;;50.75;40.25;;;;;3.76;49.03;101351.78;5057411;28;45397;-55
2023/03/02 03:34:04;;;;;;;;;57.25;43.50;;;;;3.52;48.49;101302.47;5057743;28;45654;-56
2023/03/02 03:36:29;;;;;;;;;55.25;42.50;;;;;3.55;48.64;101308.59;5057507;28;45428;-53
2023/03/02 03:38:55;;;;;;;;;57.75;41.00;;;;;3.82;48.63;101340.28;5057548;28;46299;-55
2023/03/02 03:41:21;;;;;;;;;59.33;48.33;;;;;3.83;48.46;101339.28;5057171;28;45383;-56
2023/03/02 03:43:47;;;;;;;;;52.00;42.75;;;;;3.80;48.41;101345.88;5057499;28;45326;-56
2023/03/02 03:46:12;;;;;;;;;57.50;44.25;;;;;3.74;48.91;101341.06;5057543;28;45555;-56
2023/03/02 03:48:38;;;;;;;;;48.75;40.75;;;;;3.73;49.20;101349.38;5056948;28;46129;-54
2023/03/02 03:51:03;;;;;;;;;51.75;42.25;;;;;3.56;49.17;101319.28;5057031;28;45444;-55
2023/03/02 03:53:29;;;;;;;;;53.75;43.50;;;;;3.69;49.17;101335.25;5055920;28;45337;-55
2023/03/02 03:55:56;;;;;;;;;56.00;44.25;;;;;3.69;48.94;101337.09;5057363;28;45552;-55
2023/03/02 03:58:23;;;;;;;;;54.67;42.33;;;;;3.62;49.38;101344.97;5057014;28;46745;-51
2023/03/02 04:00:50;;;;;;;;;52.50;43.00;;;;;3.34;49.72;101315.13;5038690;28;45390;-54
2023/03/02 04:03:16;;;;;;;;;57.75;45.00;;;;;3.53;49.38;101344.88;5047523;28;45985;-53
2023/03/02 04:05:41;;;;;;;;;46.25;41.50;;;;;3.25;49.27;101306.88;5025200;28;46093;-52
2023/03/02 04:08:07;;;;;;;;;52.50;41.75;;;;;3.54;49.08;101340.31;5035597;28;46502;-53
2023/03/02 04:10:33;;;;;;;;;51.75;42.00;;;;;3.63;49.80;101346.72;5035393;28;45374;-54
2023/03/02 04:12:59;;;;;;;;;52.75;44.75;;;;;3.47;48.95;101315.63;5036874;28;45327;-55
2023/03/02 04:15:24;;;;;;;;;56.00;45.50;;;;;3.32;49.37;101303.56;5035936;28;45475;-53
2023/03/02 04:17:50;;;;;;;;;43.75;39.00;;;;;3.63;49.14;101352.97;5046663;28;45779;-53
2023/03/02 04:20:18;;;;;;;;;58.25;47.00;;;;;3.61;49.42;101348.69;5056665;28;45302;-55
2023/03/02 04:22:44;;;;;;;;;56.00;44.00;;;;;3.42;48.71;101311.66;5056555;28;45387;-53
2023/03/02 04:25:09;;;;;;;;;51.00;45.00;;;;;3.64;49.45;101351.13;5055778;28;45621;-54
2023/03/02 04:27:35;;;;;;;;;52.25;44.75;;;;;3.61;49.71;101359.56;5056101;28;46000;-55
2023/03/02 04:30:00;;;;;;;;;47.50;44.25;;;;;3.59;49.90;101353.44;5055928;28;45255;-55
2023/03/02 04:32:26;;;;;;;;;61.50;49.00;;;;;3.60;49.48;101353.28;5056616;28;45374;-53
2023/03/02 04:34:51;;;;;;;;;52.25;42.75;;;;;3.35;49.54;101301.41;5056867;28;45472;-55
2023/03/02 04:37:17;;;;;;;;;51.50;41.25;;;;;3.58;49.53;101352.56;5056470;28;46435;-52
2023/03/02 04:39:46;;;;;;;;;58.00;47.00;;;;;3.51;49.52;101357.75;5055329;28;45292;-52
2023/03/02 04:42:11;;;;;;;;;55.00;47.00;;;;;3.21;50.04;101301.91;5056536;28;45278;-56
2023/03/02 04:44:36;;;;;;;;;52.75;44.75;;;;;3.59;49.55;101361.59;5056585;28;45497;-52
2023/03/02 04:47:02;;;;;;;;;58.75;47.00;;;;;3.50;50.07;101358.78;5055959;28;46111;-51
2023/03/02 04:49:28;;;;;;;;;55.25;45.00;;;;;3.47;49.79;101364.47;5056508;28;45649;-54
2023/03/02 04:51:53;;;;;;;;;43.00;37.75;;;;;3.44;49.83;101364.78;5055866;28;45329;-53
2023/03/02 04:54:20;;;;;;;;;59.00;47.50;;;;;3.50;49.83;101363.34;5055053;28;45252;-52
2023/03/02 04:56:47;;;;;;;;;56.50;44.00;;;;;3.46;50.07;101365.50;5055888;28;46354;-53
2023/03/02 04:59:14;;;;;;;;;55.25;45.50;;;;;3.46;49.71;101361.94;5056145;28;45254;-54
2023/03/02 05:01:40;;;;;;;;;51.00;41.33;;;;;3.50;49.68;101363.34;5056030;28;45327;-51
2023/03/02 05:04:06;;;;;;;;;50.67;38.33;;;;;3.48;49.79;101354.50;5036487;28;45262;-51
2023/03/02 05:06:31;;;;;;;;;54.33;46.67;;;;;3.50;49.90;101371.47;5034874;28;46656;-54
2023/03/02 05:08:58;;;;;;;;;49.75;41.25;;;;;3.49;49.91;101357.06;5034021;28;45354;-54
2023/03/02 05:11:24;;;;;;;;;52.00;44.33;;;;;3.50;49.52;101357.91;5036013;28;45902;-55
2023/03/02 05:13:55;;;;;;;;;48.67;43.00;;;;;3.46;49.50;101359.22;5034662;28;45267;-53
2023/03/02 05:16:21;;;;;;;;;61.33;49.00;;;;;3.18;49.97;101307.63;5035223;28;46151;-51
2023/03/02 05:18:46;;;;;;;;;53.33;46.33;;;;;3.42;50.09;101349.66;5018394;28;45339;-54
2023/03/02 05:21:13;;;;;;;;;60.33;46.00;;;;;3.39;50.37;101354.41;5014015;28;45417;-54
2023/03/02 05:23:39;;;;;;;;;53.25;44.50;;;;;3.18;50.38;101321.19;4997860;28;45376;-55
2023/03/02 05:26:04;;;;;;;;;63.00;52.67;;;;;3.42;50.11;101360.53;4997441;28;45413;-52
2023/03/02 05:28:30;;;;;;;;;58.33;46.33;;;;;3.34;50.24;101363.97;5015334;28;45460;-55
2023/03/02 05:30:56;;;;;;;;;51.50;42.75;;;;;3.20;50.10;101330.06;5015589;28;45326;-53
2023/03/02 05:33:21;;;;;;;;;55.00;46.00;;;;;3.19;50.30;101333.75;5015294;28;45358;-53
2023/03/02 05:35:47;;;;;;;;;56.00;44.75;;;;;3.37;50.14;101363.69;5015417;28;45985;-51
2023/03/02 05:38:12;;;;;;;;;56.00;47.00;;;;;3.35;50.03;101358.41;5015117;28;45433;-50
2023/03/02 05:40:38;;;;;;;;;56.75;47.00;;;;;3.34;50.34;101361.25;5013968;28;45527;-53
2023/03/02 05:43:04;;;;;;;;;54.00;44.67;;;;;3.19;50.51;101331.91;5014319;28;45335;-52
2023/03/02 05:45:31;;;;;;;;;63.67;47.00;;;;;3.31;50.63;101362.41;5014828;28;46669;-55
2023/03/02 05:47:57;;;;;;;;;59.00;46.75;;;;;3.28;50.66;101356.41;5015173;28;45279;-54
2023/03/02 05:50:22;;;;;;;;;64.33;48.67;;;;;3.25;50.68;101354.84;5014818;28;45290;-61
2023/03/02 05:52:48;;;;;;;;;54.33;45.00;;;;;3.33;50.91;101363.13;5013995;28;45157;-54
2023/03/02 05:55:14;;;;;;;;;59.33;47.33;;;;;2.95;50.57;101311.56;5013449;28;46487;-54
2023/03/02 05:57:39;;;;;;;;;47.00;43.33;;;;;3.22;50.43;101366.03;5013502;28;45398;-52
2023/03/02 06:00:06;;;;;;;;;63.50;52.50;;;;;3.26;50.44;101367.44;5015518;28;45435;-54
2023/03/02 06:02:31;;;;;;;;;65.33;51.00;;;;;3.23;50.72;101368.59;5015120;28;45295;-52
2023/03/02 06:04:57;;;;;;;;;62.67;49.33;;;;;3.29;50.66;101377.13;5014817;28;46405;-54
2023/03/02 06:07:22;;;;;;;;;61.67;47.67;;;;;3.22;50.86;101379.59;5014631;28;45511;-53
2023/03/02 06:09:49;;;;;;;;;60.33;43.33;;;;;3.24;50.87;101380.28;5014169;28;45384;-52
2023/03/02 06:12:16;;;;;;;;;59.33;47.33;;;;;3.21;51.29;101381.44;5013702;28;45883;-55
2023/03/02 06:14:42;;;;;;;;;54.67;47.67;;;;;3.25;50.91;101384.69;5015190;28;46645;-51
2023/03/02 06:17:07;;;;;;;;;61.00;47.67;;;;;3.28;51.13;101381.72;5021420;28;45424;-52
2023/03/02 06:19:33;;;;;;;;;56.33;45.00;;;;;3.26;50.97;101394.56;5020169;28;45414;-53
2023/03/02 06:21:58;;;;;;;;;61.33;47.00;;;;;3.27;51.13;101390.84;5030827;28;45362;-54
2023/03/02 06:24:24;;;;;;;;;53.00;44.33;;;;;3.29;51.06;101387.97;5033594;28;46390;-54
2023/03/02 06:26:51;;;;;;;;;57.33;48.00;;;;;3.21;50.81;101370.56;5034547;28;45488;-53
2023/03/02 06:29:17;;;;;;;;;61.67;46.67;;;;;3.29;50.97;101388.84;5033212;28;45424;-52
2023/03/02 06:31:42;;;;;;;;;63.00;49.33;;;;;3.32;50.62;101399.41;5034712;28;45386;-55
2023/03/02 06:34:07;;;;;;;;;55.33;48.33;;;;;3.32;50.90;101398.53;5034279;28;45801;-55
2023/03/02 06:36:33;;;;;;;;;61.33;50.00;;;;;3.31;50.86;101388.69;5034335;28;45434;-51
2023/03/02 06:38:58;;;;;;;;;51.00;45.00;;;;;3.22;50.94;101380.44;5034570;28;45385;-53
2023/03/02 06:41:24;;;;;;;;;63.00;49.00;;;;;3.29;50.94;101399.69;5034465;28;45417;-55
2023/03/02 06:43:50;;;;;;;;;58.33;48.00;;;;;3.32;51.23;101394.00;5034564;28;45326;-54
2023/03/02 06:46:15;;;;;;;;;58.00;48.33;;;;;3.36;50.46;101397.25;5034194;28;45354;-55
2023/03/02 06:48:41;;;;;;;;;56.00;44.67;;;;;3.35;50.82;101401.81;5033024;28;45408;-54
2023/03/02 06:51:07;;;;;;;;;58.33;46.67;;;;;3.22;50.64;101376.88;5034983;28;45155;-55
2023/03/02 06:53:33;;;;;;;;;58.33;48.33;;;;;3.34;50.88;101399.25;5032169;28;46472;-55
2023/03/02 06:55:58;;;;;;;;;53.67;45.67;;;;;3.31;50.94;101411.25;5034185;28;45223;-54
2023/03/02 06:58:23;;;;;;;;;55.67;48.00;;;;;3.33;51.21;101411.09;5034394;28;45356;-55
2023/03/02 07:00:49;;;;;;;;;62.33;49.67;;;;;3.29;50.34;101409.69;5033270;28;45345;-55
2023/03/02 07:03:16;;;;;;;;;56.67;45.67;;;;;3.34;50.85;101410.09;5034366;28;45857;-55
2023/03/02 07:05:41;;;;;;;;;54.33;44.00;;;;;3.34;50.98;101412.81;5034225;28;46011;-55
2023/03/02 07:08:07;;;;;;;;;53.00;48.33;;;;;3.21;51.12;101411.28;5034348;28;45362;-55
2023/03/02 07:10:32;;;;;;;;;58.67;46.00;;;;;3.29;50.83;101421.41;5034434;28;45479;-52
2023/03/02 07:12:58;;;;;;;;;63.00;48.33;;;;;3.31;51.18;101422.09;5033733;28;46029;-54
2023/03/02 07:15:23;;;;;;;;;60.00;50.75;;;;;2.70;50.84;101315.78;5034391;28;45367;-54
2023/03/02 07:17:49;;;;;;;;;62.25;47.50;;;;;3.32;50.60;101410.28;5040636;28;45374;-52
2023/03/02 07:20:16;;;;;;;;;49.75;44.00;;;;;3.36;50.39;101417.09;5053306;28;45782;-52
2023/03/02 07:22:41;;;;;;;;;65.67;51.33;;;;;3.37;50.64;101407.94;5054136;28;45408;-54
2023/03/02 07:25:07;;;;;;;;;55.00;49.00;;;;;3.38;50.91;101406.94;5054357;28;45312;-55
2023/03/02 07:27:33;;;;;;;;;61.00;48.25;;;;;3.43;50.57;101411.06;5054654;28;45294;-53
2023/03/02 07:29:58;;;;;;;;;55.00;47.00;;;;;3.37;50.92;101402.50;5054457;28;45233;-54
2023/03/02 07:32:24;;;;;;;;;56.75;48.00;;;;;3.46;50.87;101408.09;5054027;28;46692;-54
2023/03/02 07:34:49;;;;;;;;;60.50;48.75;;;;;3.48;51.12;101403.34;5054020;28;45427;-54
2023/03/02 07:37:15;;;;;;;;;59.75;46.25;;;;;3.44;50.86;101391.06;5052374;28;45345;-53
2023/03/02 07:39:40;;;;;;;;;63.67;49.00;;;;;3.51;50.33;101397.59;5053160;28;45605;-55
2023/03/02 07:42:07;;;;;;;;;66.67;50.33;;;;;3.58;50.53;101404.16;5052773;28;47097;-56
2023/03/02 07:44:33;;;;;;;;;67.33;48.00;;;;;3.22;51.00;101350.59;5053980;28;45351;-55
2023/03/02 07:46:58;;;;;;;;;69.67;53.67;;;;;3.56;50.44;101395.31;5053932;28;45380;-55
2023/03/02 07:49:24;;;;;;;;;62.50;48.50;;;;;3.08;50.90;101341.06;5036482;28;45362;-56
2023/03/02 07:51:49;;;;;;;;;60.67;49.33;;;;;3.48;50.97;101400.63;5053584;28;46329;-55
2023/03/02 07:54:15;;;;;;;;;59.75;49.00;;;;;3.45;51.09;101409.94;5053532;28;45299;-55
2023/03/02 07:56:40;;;;;;;;;64.75;50.50;;;;;3.45;51.06;101409.06;5053982;28;45239;-53
2023/03/02 07:59:06;;;;;;;;;64.00;49.67;;;;;3.39;51.23;101408.66;5053867;28;45306;-55
2023/03/02 08:01:31;;;;;;;;;69.67;54.67;;;;;3.42;50.50;101406.66;5053756;28;47752;-53
2023/03/02 08:03:57;;;;;;;;;64.75;51.25;;;;;3.17;51.27;101385.47;5052347;28;45358;-56
2023/03/02 08:06:22;;;;;;;;;46.33;42.00;;;;;3.36;51.37;101406.25;5054885;28;45290;-56
2023/03/02 08:08:48;;;;;;;;;70.67;50.00;;;;;3.29;51.15;101388.84;5032050;28;45670;-52
2023/03/02 08:11:15;;;;;;;;;49.25;44.00;;;;;3.48;51.03;101406.91;5013583;28;46493;-50
2023/03/02 08:13:40;;;;;;;;;63.33;50.67;;;;;3.45;50.86;101428.06;5036742;28;45729;-54
2023/03/02 08:16:07;;;;;;;;;62.00;49.33;;;;;3.11;50.81;101356.22;5037100;28;45411;-53
2023/03/02 08:18:33;;;;;;;;;67.33;52.00;;;;;3.50;50.67;101425.75;5046500;28;45469;-56
2023/03/02 08:20:59;;;;;;;;;68.00;52.67;;;;;3.49;50.53;101424.91;5056900;28;46184;-56
2023/03/02 08:23:24;;;;;;;;;65.00;52.00;;;;;3.52;50.61;101412.88;5056831;28;45338;-54
2023/03/02 08:25:51;;;;;;;;;61.33;47.67;;;;;3.63;50.52;101422.72;5057269;28;45305;-54
2023/03/02 08:28:20;;;;;;;;;69.00;56.67;;;;;3.66;50.46;101415.13;5055590;28;45502;-54
2023/03/02 08:30:54;;;;;;;;;65.00;52.33;;;;;3.66;50.46;101422.41;5055405;28;46263;-52
2023/03/02 08:33:19;;;;;;;;;66.00;52.33;;;;;3.71;50.73;101421.97;5056633;28;45163;-54
2023/03/02 08:36:00;;;;;;;;;65.00;52.00;;;;;3.72;50.89;101424.53;5055319;28;45400;-53
2023/03/02 08:38:29;;;;;;;;;69.33;51.67;;;;;3.77;50.09;101414.09;5055694;28;45413;-55
2023/03/02 08:40:54;;;;;;;;;66.00;52.00;;;;;3.83;49.95;101415.31;5055248;28;46435;-55
2023/03/02 08:43:20;;;;;;;;;71.00;53.67;;;;;3.85;49.96;101409.75;5038474;28;45510;-52
2023/03/02 08:45:53;;;;;;;;;63.67;49.67;;;;;3.60;50.57;101353.28;5056326;28;45393;-54
2023/03/02 08:48:20;;;;;;;;;67.33;53.00;;;;;3.91;50.03;101393.69;5055063;28;45257;-56
2023/03/02 08:51:03;;;;;;;;;66.67;54.67;;;;;3.90;50.78;101393.88;5056433;28;46695;-54
2023/03/02 08:53:30;;;;;;;;;71.00;57.00;;;;;3.92;49.78;101400.84;5038209;28;45644;-53
2023/03/02 08:55:56;;;;;;;;;68.67;56.00;;;;;3.77;49.75;101364.34;5055114;28;45324;-56
2023/03/02 08:58:21;;;;;;;;;63.67;53.33;;;;;3.88;50.10;101383.16;5056344;28;45419;-57
2023/03/02 09:00:47;;;;;;;;;70.50;54.50;;;;;3.95;49.97;101390.69;5041404;28;45974;-58
2023/03/02 09:03:12;;;;;;;;;70.33;53.00;;;;;3.91;49.67;101387.41;5017055;28;45543;-56
2023/03/02 09:05:38;;;;;;;;;59.33;45.33;;;;;3.95;50.08;101383.38;4957586;28;45393;-58
2023/03/02 09:08:04;;;;;;;;;57.33;43.33;;;;;4.10;49.48;101394.59;5036370;28;45306;-58
2023/03/02 09:10:29;;;;;;;;;70.33;53.33;;;;;3.91;48.75;101339.38;5035860;28;45456;-58
2023/03/02 09:12:55;;;;;;;;;62.67;52.00;;;;;4.10;49.26;101363.88;5022183;28;45836;-60
2023/03/02 09:15:24;;;;;;;;;62.00;49.33;;;;;4.16;49.14;101374.13;5016412;28;45330;-61
2023/03/02 09:17:49;;;;;;;;;67.67;54.33;;;;;4.30;48.89;101376.28;5018252;28;45647;-56
2023/03/02 09:20:15;;;;;;;;;60.00;47.67;;;;;4.30;49.31;101391.72;5055559;28;45643;-56
2023/03/02 09:22:46;;;;;;;;;71.33;54.00;;;;;3.74;49.01;101285.91;5027540;28;45450;-54
2023/03/02 09:25:12;;;;;;;;;68.67;51.67;;;;;4.31;48.66;101386.16;5031666;28;45762;-55
2023/03/02 09:27:38;;;;;;;;;59.67;47.67;;;;;4.34;48.84;101385.81;4993059;28;45516;-56
2023/03/02 09:30:04;;;;;;;;;71.33;54.33;;;;;4.38;48.65;101389.09;5033678;28;46581;-57
2023/03/02 09:32:30;;;;;;;;;65.00;53.00;;;;;4.45;48.66;101394.78;5033998;28;45695;-56
2023/03/02 09:34:56;;;;;;;;;62.67;50.33;;;;;4.50;47.91;101392.44;5033557;28;45425;-55
2023/03/02 09:37:22;;;;;;;;;66.33;55.33;;;;;4.57;48.63;101385.38;5037979;28;45962;-56
2023/03/02 09:39:47;;;;;;;;;71.67;56.00;;;;;4.66;47.64;101386.31;5040469;28;46207;-56
2023/03/02 09:42:40;;;;;;;;;68.00;52.33;;;;;4.67;48.28;101385.28;5034847;28;45467;-56
2023/03/02 09:45:46;;;;;;;;;63.67;52.00;;;;;4.71;47.79;101389.38;5033723;28;45484;-54
2023/03/02 09:48:37;;;;;;;;;67.33;51.67;;;;;4.69;48.28;101385.13;5016120;28;45549;-57
2023/03/02 09:51:20;;;;;;;;;65.67;53.33;;;;;4.70;47.58;101382.22;5031844;28;45467;-54
2023/03/02 09:54:29;;;;;;;;;65.33;54.67;;;;;4.73;47.42;101376.50;5031694;28;45409;-55
2023/03/02 09:56:59;;;;;;;;;63.67;53.00;;;;;4.02;47.59;101262.25;4998228;28;46410;-57
2023/03/02 09:59:33;;;;;;;;;67.00;52.67;;;;;4.18;47.23;101288.69;5032715;28;45540;-55
2023/03/02 10:02:05;;;;;;;;;67.00;53.00;;;;;4.77;47.29;101389.78;5030910;28;45451;-56
2023/03/02 10:04:37;;;;;;;;;65.33;51.00;;;;;4.66;48.06;101391.75;5033615;28;45420;-60
2023/03/02 10:07:16;;;;;;;;;62.67;51.33;;;;;4.81;47.16;101393.91;5022531;28;45404;-57
2023/03/02 10:09:42;;;;;;;;;61.00;48.67;;;;;4.84;46.80;101393.56;5033390;28;45293;-56
2023/03/02 10:12:42;;;;;;;;;63.67;51.00;;;;;4.86;47.26;101399.72;5032777;28;46293;-55
2023/03/02 10:15:11;;;;;;;;;65.33;53.00;;;;;4.90;47.22;101392.94;5005729;28;45367;-54
2023/03/02 10:18:09;;;;;;;;;67.00;54.67;;;;;5.12;46.56;101393.44;5010981;28;45483;-57
2023/03/02 10:20:53;;;;;;;;;67.00;53.67;;;;;5.29;46.34;101392.50;5028872;28;45518;-56
2023/03/02 10:23:25;;;;;;;;;66.67;51.67;;;;;5.41;46.90;101384.91;5013114;28;46156;-63
2023/03/02 10:26:18;;;;;;;;;68.67;53.67;;;;;5.50;46.35;101388.53;5014432;28;45428;-59
2023/03/02 10:28:48;;;;;;;;;63.67;54.00;;;;;5.60;46.65;101391.13;5014238;28;45342;-59
2023/03/02 10:31:31;;;;;;;;;67.00;52.67;;;;;5.76;45.32;101375.91;5014434;28;45413;-58
2023/03/02 10:33:56;;;;;;;;;68.33;52.67;;;;;5.87;45.17;101366.56;5013035;28;46209;-56
2023/03/02 10:36:36;;;;;;;;;65.00;50.00;;;;;5.90;45.40;101377.13;5013296;28;45414;-58
2023/03/02 10:39:02;;;;;;;;;66.33;51.33;;;;;5.89;45.02;101376.28;4998338;28;45354;-57
2023/03/02 10:41:39;;;;;;;;;60.00;48.67;;;;;6.00;44.35;101375.13;5014552;28;45774;-57
2023/03/02 10:44:18;;;;;;;;;62.00;49.33;;;;;6.17;44.84;101375.19;5014264;28;46450;-58
2023/03/02 10:46:44;;;;;;;;;65.67;50.33;;;;;6.28;44.51;101372.16;4997093;28;45549;-57
2023/03/02 10:49:29;;;;;;;;;63.33;50.00;;;;;6.34;44.07;101366.03;5012957;28;45473;-58
2023/03/02 10:52:01;;;;;;;;;63.67;53.00;;;;;6.24;43.89;101340.78;5014442;28;45478;-57
2023/03/02 10:54:28;;;;;;;;;68.33;52.67;;;;;6.58;44.11;101358.88;5012559;28;45647;-57
2023/03/02 10:57:01;;;;;;;;;68.00;52.00;;;;;6.52;43.31;101324.13;5012930;28;45343;-60
2023/03/02 10:59:42;;;;;;;;;64.33;49.33;;;;;6.90;43.55;101356.31;5014093;28;45357;-59
2023/03/02 11:02:10;;;;;;;;;73.00;53.33;;;;;7.09;43.29;101354.22;5013137;28;45362;-56
2023/03/02 11:04:35;;;;;;;;;58.50;47.50;;;;;7.27;42.70;101352.13;5013769;28;46648;-58
2023/03/02 11:07:28;;;;;;;;;70.33;53.00;;;;;7.43;42.34;101353.09;5012884;28;45407;-57
2023/03/02 11:10:16;;;;;;;;;62.00;50.33;;;;;7.57;41.97;101356.97;5013137;28;45493;-58
2023/03/02 11:12:47;;;;;;;;;63.33;50.33;;;;;7.52;41.50;101332.09;5014655;28;45386;-60
2023/03/02 11:15:31;;;;;;;;;66.00;50.33;;;;;7.79;41.05;101349.03;5012513;28;46542;-58
2023/03/02 11:17:59;;;;;;;;;61.67;49.33;;;;;7.88;41.30;101341.66;5016796;28;45567;-57
2023/03/02 11:20:28;;;;;;;;;62.67;51.00;;;;;7.67;41.41;101296.66;5053909;28;45394;-57
2023/03/02 11:23:27;;;;;;;;;59.67;46.00;;;;;7.98;40.74;101347.72;5036128;28;45415;-56